Arverne, NY

2:06 PM EST on February 27, 2017 (GMT -0500)
Rockaway - WeatherMan Ken | | Change Station

Elev 7 ft 40.58 °N, 73.84 °W | Updated 35 seconds ago

Mostly Cloudy
Mostly Cloudy
47.5 °F
Feels Like 45 °F
N
6.0
Wind Variable Wind from SSW

Today
High -- | Low -- °F
--% Chance of Precip.
Yesterday
High -- | Low -- °F
Precip. -- in
Pressure 30.39 in
Visibility 10.0 miles
Clouds Few 9000 ft
Few 20000 ft
Overcast 26000 ft
Windchill 45 °F
Dew Point 33 °F
Humidity 58%
Rainfall 0.00 in
Snow Depth Not available.
6:31 AM 5:44 PM
New Moon, 2% visible
METAR KJFK 271851Z 18011KT 10SM FEW090 FEW200 OVC260 09/03 A3039 RMK AO2 SLP291 T00890033
Pressure 30.39 in
Visibility 10.0 miles
Clouds Few 9000 ft
Few 20000 ft
Overcast 26000 ft
Windchill 45 °F
Dew Point 33 °F
Humidity 58%
Rainfall 0.00 in
Snow Depth Not available.
6:31 AM 5:44 PM
New Moon, 2% visible
METAR KJFK 271851Z 18011KT 10SM FEW090 FEW200 OVC260 09/03 A3039 RMK AO2 SLP291 T00890033

Get Your Daily Forecast Email!

Thanks for signing up!

Be on the lookout for a verification email in your inbox.

You'll start receiving the daily forecast at 8 AM.

×

10-Day Weather Forecast

Almanac

Astronomy

Feb. 27, 2017 Rise Set
Actual Time
Civil Twilight
Nautical Twilight
Astronomical Twilight
Moon
Length of Visible Light
Length of Day
Tomorrow will be .
, % of the Moon is Illuminated

Today's Extremes

State Highs State Lows

Community

WunderPhotos

Upload Photos

1,962,540 photos uploaded!

WunderBlog® & News

Nearby

Air Quality

  Air Quality AQ Index Pollutant
Not available.

Snow Depth

Station Depth Elevation

Earthquake Activity

City Distance Mag. Time & Date
Minimum magnitude displayed is 2.5.

Coastal Water Temperatures

Place Temperature

Stations

Nearby Weather Stations

Station Location Temp. Windchill Dew Point Humidity Wind Precip. Elev Updated Type
                   

Watches & Warnings

There are currently no watches in effect.